Time;durP1;ratioP1;P1;durP2;ratioP2;P2;SDS_P1;SDS_P2;PMS_P1;PMS_P2;Temp;Humidity;BMP_temperature;BMP_pressure;BME280_temperature;BME280_humidity;BME280_pressure;Samples;Min_cycle;Max_cycle;Signal;HPM_P1;HPM_P2
2022/06/06 00:01:53;;;;;;;2.50;2.30;;;22.50;74.60;;;;;;5119891;27;20527;-6
2022/06/06 00:04:20;;;;;;;2.67;2.47;;;22.50;74.60;;;;;;5092083;28;20201;-6
2022/06/06 00:06:48;;;;;;;2.87;2.63;;;22.50;74.60;;;;;;5098478;27;20173;-6
2022/06/06 00:09:15;;;;;;;2.50;2.30;;;22.50;74.70;;;;;;5113623;27;20289;-5
2022/06/06 00:11:42;;;;;;;2.50;2.30;;;22.50;74.70;;;;;;5111279;28;20177;-5
2022/06/06 00:14:09;;;;;;;2.87;2.67;;;22.50;74.60;;;;;;5095221;28;20204;-6
2022/06/06 00:16:38;;;;;;;2.27;2.13;;;22.50;74.60;;;;;;5125656;27;20394;-6
2022/06/06 00:19:05;;;;;;;3.03;2.83;;;22.50;74.60;;;;;;5117446;27;20261;-6
2022/06/06 00:21:34;;;;;;;2.80;2.60;;;22.50;74.60;;;;;;5092174;28;20199;-7
2022/06/06 00:24:00;;;;;;;3.07;2.87;;;22.50;74.60;;;;;;5073760;28;20300;-6
2022/06/06 00:26:30;;;;;;;3.03;2.83;;;22.50;74.60;;;;;;5120756;27;20848;-6
2022/06/06 00:28:56;;;;;;;2.93;2.73;;;22.50;74.60;;;;;;5087894;27;20460;-6
2022/06/06 00:36:56;;;;;;;3.30;3.00;;;22.40;74.50;;;;;;5112674;27;20642;-6
2022/06/06 00:39:22;;;;;;;2.90;2.70;;;22.40;75.30;;;;;;5109407;28;20525;-6
2022/06/06 00:41:56;;;;;;;2.83;2.63;;;22.40;74.60;;;;;;5112159;28;20197;-5
2022/06/06 00:44:28;;;;;;;3.33;2.90;;;22.40;74.60;;;;;;5129706;27;20605;-7
2022/06/06 00:47:14;;;;;;;3.10;2.90;;;22.40;74.60;;;;;;5115775;27;20531;-6
2022/06/06 00:50:21;;;;;;;3.57;3.20;;;22.40;74.80;;;;;;5123272;27;20158;-7
2022/06/06 00:52:51;;;;;;;3.63;3.33;;;22.40;74.70;;;;;;5064801;28;20259;-5
2022/06/06 00:55:24;;;;;;;3.47;3.17;;;22.40;74.80;;;;;;5073495;28;20197;-5
2022/06/06 00:57:58;;;;;;;3.70;3.40;;;22.40;74.80;;;;;;5067641;28;20183;-5
2022/06/06 01:00:26;;;;;;;3.70;3.40;;;22.40;74.90;;;;;;5080289;28;20190;-5
2022/06/06 01:02:56;;;;;;;3.80;3.37;;;22.40;74.80;;;;;;5074619;28;20502;-5
2022/06/06 01:05:24;;;;;;;3.50;3.20;;;22.40;74.80;;;;;;5092961;28;20183;-7
2022/06/06 01:07:50;;;;;;;3.73;3.43;;;22.40;74.80;;;;;;5077883;28;20186;-7
2022/06/06 01:10:16;;;;;;;3.90;3.60;;;22.40;75.00;;;;;;5069926;28;20315;-6
2022/06/06 01:12:44;;;;;;;3.60;3.30;;;22.40;75.10;;;;;;5076699;28;20183;-6
2022/06/06 01:15:21;;;;;;;3.73;3.43;;;22.40;75.00;;;;;;5084259;28;20182;-6
2022/06/06 01:17:52;;;;;;;3.93;3.63;;;22.30;74.90;;;;;;5090069;28;20182;-5
2022/06/06 01:21:13;;;;;;;3.80;3.50;;;22.40;75.00;;;;;;5060364;28;20184;-6
2022/06/06 01:23:50;;;;;;;3.90;3.60;;;22.40;75.00;;;;;;5050330;28;20795;-5
2022/06/06 01:26:43;;;;;;;3.80;3.50;;;22.30;75.00;;;;;;5093310;28;20179;-6
2022/06/06 01:29:15;;;;;;;4.30;3.90;;;22.30;75.00;;;;;;5130471;27;20177;-6
2022/06/06 01:32:08;;;;;;;4.30;3.90;;;22.30;75.00;;;;;;5098624;27;20574;-6
2022/06/06 01:34:56;;;;;;;4.20;3.80;;;22.30;75.00;;;;;;5103516;27;20177;-7
2022/06/06 01:37:38;;;;;;;4.40;4.00;;;22.30;74.80;;;;;;5125459;27;20173;-5
2022/06/06 01:40:28;;;;;;;3.97;3.57;;;22.30;75.00;;;;;;5112110;27;20226;-6
2022/06/06 01:43:02;;;;;;;4.10;3.80;;;22.30;75.00;;;;;;5132182;27;20213;-5
2022/06/06 01:45:35;;;;;;;4.23;3.83;;;22.30;75.00;;;;;;5138294;27;20166;-5
2022/06/06 01:48:12;;;;;;;3.90;3.60;;;22.30;75.00;;;;;;5138665;27;20177;-6
2022/06/06 01:50:39;;;;;;;4.17;3.87;;;22.30;75.00;;;;;;5138451;27;20165;-7
2022/06/06 01:53:08;;;;;;;4.10;3.70;;;22.30;75.10;;;;;;5120863;27;20188;-6
2022/06/06 01:55:36;;;;;;;4.33;3.97;;;22.20;75.00;;;;;;5119508;27;20174;-7
2022/06/06 01:58:06;;;;;;;4.07;3.77;;;22.30;75.10;;;;;;5120189;27;20177;-6
2022/06/06 02:00:34;;;;;;;4.40;4.00;;;22.20;75.00;;;;;;5138248;27;20267;-6
2022/06/06 02:03:20;;;;;;;4.30;3.90;;;22.20;74.90;;;;;;5110771;27;20697;-6
2022/06/06 02:05:46;;;;;;;4.73;4.33;;;22.30;75.00;;;;;;5095591;27;20241;-6
2022/06/06 02:08:12;;;;;;;4.53;4.13;;;22.20;75.00;;;;;;5134186;27;20162;-7
2022/06/06 02:10:39;;;;;;;4.33;3.93;;;22.20;75.00;;;;;;5116707;27;20553;-5
2022/06/06 02:13:05;;;;;;;4.40;4.00;;;22.20;75.00;;;;;;5134333;27;20688;-6
2022/06/06 02:15:31;;;;;;;4.77;4.27;;;22.20;75.10;;;;;;5116104;27;20178;-7
2022/06/06 02:17:57;;;;;;;4.40;4.00;;;22.20;75.10;;;;;;5132577;27;20363;-7
2022/06/06 02:20:27;;;;;;;4.57;4.17;;;22.20;75.20;;;;;;5132501;27;20173;-6
2022/06/06 02:22:53;;;;;;;4.43;4.03;;;22.20;75.10;;;;;;5116105;27;20467;-6
2022/06/06 02:25:19;;;;;;;4.63;4.23;;;22.20;75.20;;;;;;5135597;27;20564;-6
2022/06/06 02:27:45;;;;;;;4.27;3.87;;;22.20;75.20;;;;;;5119134;27;20180;-6
2022/06/06 02:30:18;;;;;;;4.87;4.47;;;22.20;75.20;;;;;;5126931;27;20171;-7
2022/06/06 02:32:44;;;;;;;4.67;4.27;;;22.20;75.20;;;;;;5138293;27;20196;-7
2022/06/06 02:35:13;;;;;;;4.40;4.00;;;22.20;75.10;;;;;;5137483;27;20200;-7
2022/06/06 02:37:40;;;;;;;4.50;4.10;;;22.20;75.20;;;;;;5105649;27;20185;-5
2022/06/06 02:40:09;;;;;;;4.37;3.97;;;22.10;75.10;;;;;;5135869;27;20166;-6
2022/06/06 02:42:36;;;;;;;4.40;4.00;;;22.10;75.10;;;;;;5134112;27;20227;-6
2022/06/06 02:45:02;;;;;;;4.50;4.10;;;22.10;75.10;;;;;;5114154;27;20168;-6
2022/06/06 02:47:29;;;;;;;4.30;3.90;;;22.10;75.10;;;;;;5133486;27;20165;-6
2022/06/06 02:49:55;;;;;;;4.60;4.20;;;22.10;75.10;;;;;;5134865;27;20268;-6
2022/06/06 02:52:21;;;;;;;4.33;3.93;;;22.10;75.00;;;;;;5122807;27;20283;-6
2022/06/06 02:54:47;;;;;;;4.37;3.97;;;22.10;75.10;;;;;;5133864;27;20189;-7
2022/06/06 02:57:13;;;;;;;4.10;3.80;;;22.10;75.10;;;;;;5137759;27;20248;-6
2022/06/06 02:59:43;;;;;;;4.10;3.80;;;22.10;75.10;;;;;;5119904;27;20535;-5
2022/06/06 03:02:09;;;;;;;4.30;3.93;;;22.10;75.00;;;;;;5136722;27;20274;-6
2022/06/06 03:04:38;;;;;;;4.00;3.70;;;22.10;75.00;;;;;;5138456;27;20241;-6
2022/06/06 03:07:27;;;;;;;4.70;4.30;;;22.10;75.00;;;;;;5117306;27;20230;-5
2022/06/06 03:09:59;;;;;;;4.60;4.20;;;22.00;75.00;;;;;;5137477;27;20201;-6
2022/06/06 03:12:53;;;;;;;4.30;3.97;;;22.00;75.00;;;;;;5119139;27;20190;-5
2022/06/06 03:15:33;;;;;;;4.07;3.77;;;22.00;75.00;;;;;;5136824;27;20177;-5
2022/06/06 03:21:45;;;;;;;4.30;4.00;;;22.00;75.00;;;;;;5136378;27;20180;-6
2022/06/06 03:24:29;;;;;;;3.73;3.43;;;22.00;75.00;;;;;;5112901;27;20213;-7
2022/06/06 03:27:21;;;;;;;4.57;4.17;;;22.00;74.90;;;;;;5132026;27;20250;-6
2022/06/06 03:29:47;;;;;;;4.00;3.70;;;22.00;74.90;;;;;;5137612;27;20430;-7
2022/06/06 03:32:29;;;;;;;4.00;3.70;;;22.00;74.90;;;;;;5136811;27;20176;-5
2022/06/06 03:35:22;;;;;;;4.60;4.20;;;22.00;74.80;;;;;;5137234;27;20539;-6
2022/06/06 03:38:03;;;;;;;4.00;3.70;;;22.00;74.80;;;;;;5113729;27;20177;-7
2022/06/06 03:40:35;;;;;;;3.93;3.60;;;22.00;74.90;;;;;;5136923;27;20461;-6
2022/06/06 03:43:17;;;;;;;4.00;3.70;;;22.00;74.90;;;;;;5112782;27;20217;-6
2022/06/06 03:46:08;;;;;;;4.20;3.90;;;22.00;74.80;;;;;;5112940;27;20853;-6
2022/06/06 03:49:05;;;;;;;4.30;3.97;;;22.00;74.90;;;;;;5126978;27;20165;-5
2022/06/06 03:51:47;;;;;;;3.87;3.57;;;22.00;74.70;;;;;;5109069;27;20807;-7
2022/06/06 03:54:21;;;;;;;3.93;3.63;;;21.90;74.70;;;;;;5133043;27;20163;-5
2022/06/06 03:57:09;;;;;;;4.30;3.90;;;22.00;74.80;;;;;;5108576;28;20196;-7
2022/06/06 03:59:37;;;;;;;4.00;3.70;;;21.90;74.70;;;;;;5109459;27;20200;-5
2022/06/06 04:02:05;;;;;;;3.87;3.57;;;21.90;74.70;;;;;;5129436;27;20591;-6
2022/06/06 04:04:32;;;;;;;4.20;3.90;;;21.90;74.60;;;;;;5126616;27;20230;-7
2022/06/06 04:07:00;;;;;;;4.00;3.70;;;21.90;74.60;;;;;;5126769;27;20650;-5
2022/06/06 04:09:31;;;;;;;3.97;3.67;;;21.90;74.60;;;;;;5112566;28;20165;-5
2022/06/06 04:12:26;;;;;;;4.10;3.77;;;21.90;74.50;;;;;;5118304;27;20565;-5
2022/06/06 04:15:13;;;;;;;3.83;3.53;;;21.90;74.50;;;;;;5128646;27;20286;-5
2022/06/06 04:21:49;;;;;;;3.67;3.37;;;21.90;74.40;;;;;;5130934;27;20229;-6
2022/06/06 04:24:35;;;;;;;3.63;3.33;;;21.90;74.50;;;;;;5132968;27;20264;-6
2022/06/06 04:27:14;;;;;;;4.33;3.93;;;21.90;74.50;;;;;;5116942;27;20169;-6
2022/06/06 04:30:12;;;;;;;4.23;3.83;;;21.90;74.40;;;;;;5111694;27;20188;-5
2022/06/06 04:32:44;;;;;;;3.90;3.60;;;21.90;74.40;;;;;;5106299;27;20554;-7
2022/06/06 04:39:21;;;;;;;3.70;3.40;;;21.90;74.20;;;;;;5137069;27;20180;-5
2022/06/06 04:42:06;;;;;;;3.70;3.40;;;21.90;74.10;;;;;;5061742;27;20178;-5
2022/06/06 04:44:53;;;;;;;3.60;3.30;;;21.90;74.10;;;;;;5120943;27;20249;-6
2022/06/06 04:47:23;;;;;;;4.00;3.70;;;21.90;74.00;;;;;;5121268;27;20173;-6
2022/06/06 04:49:51;;;;;;;3.60;3.30;;;21.90;74.00;;;;;;5121306;27;20169;-5
2022/06/06 04:52:19;;;;;;;3.80;3.50;;;21.90;73.90;;;;;;5138468;27;20169;-6
2022/06/06 04:54:46;;;;;;;3.50;3.20;;;21.90;73.80;;;;;;5121444;27;20181;-6
2022/06/06 04:57:15;;;;;;;3.50;3.20;;;21.90;73.80;;;;;;5126925;27;20222;-5
2022/06/06 04:59:41;;;;;;;3.60;3.30;;;21.90;73.60;;;;;;5121113;27;20166;-5
2022/06/06 05:02:07;;;;;;;3.73;3.43;;;21.90;73.50;;;;;;5139290;27;20525;-6
2022/06/06 05:04:33;;;;;;;3.47;3.17;;;21.90;73.40;;;;;;5121413;27;20192;-7
2022/06/06 05:07:17;;;;;;;3.27;3.03;;;21.90;73.30;;;;;;5116023;27;20165;-7
2022/06/06 05:09:57;;;;;;;3.27;3.00;;;21.90;73.20;;;;;;5134505;27;20211;-6
2022/06/06 05:12:47;;;;;;;3.40;3.10;;;21.90;73.10;;;;;;5137184;27;20168;-6
2022/06/06 05:15:34;;;;;;;3.73;3.43;;;21.90;73.10;;;;;;5115366;27;20166;-6
2022/06/06 05:18:00;;;;;;;3.50;3.20;;;21.90;73.00;;;;;;5139146;27;20177;-5
2022/06/06 05:20:38;;;;;;;3.50;3.20;;;22.00;72.80;;;;;;5120677;27;20268;-5
2022/06/06 05:23:30;;;;;;;3.70;3.40;;;22.00;72.50;;;;;;5120153;27;20193;-7
2022/06/06 05:26:50;;;;;;;3.33;3.03;;;22.00;71.90;;;;;;5101304;27;20638;-7
2022/06/06 05:29:39;;;;;;;3.20;3.00;;;22.10;71.50;;;;;;5093225;27;20181;-5
2022/06/06 05:32:25;;;;;;;3.60;3.30;;;22.10;71.20;;;;;;5127097;27;20367;-5
2022/06/06 05:35:20;;;;;;;3.47;3.17;;;22.10;70.90;;;;;;5118446;27;20256;-6
2022/06/06 05:38:20;;;;;;;3.10;2.90;;;22.10;70.70;;;;;;5079987;27;20192;-6
2022/06/06 05:41:35;;;;;;;3.50;3.20;;;22.10;70.50;;;;;;5109836;27;20169;-7
2022/06/06 05:44:21;;;;;;;3.17;2.93;;;22.20;70.10;;;;;;5047704;28;20774;-6
2022/06/06 05:46:53;;;;;;;2.90;2.70;;;22.30;69.60;;;;;;5045829;28;20172;-6
2022/06/06 05:49:36;;;;;;;3.20;3.00;;;22.30;69.20;;;;;;5100377;27;20269;-7
2022/06/06 05:52:17;;;;;;;3.20;2.90;;;22.30;68.90;;;;;;5133413;27;20176;-6
2022/06/06 05:54:57;;;;;;;2.93;2.73;;;22.30;68.80;;;;;;5113649;27;20222;-5
2022/06/06 05:57:53;;;;;;;3.33;3.03;;;22.30;68.50;;;;;;5107029;27;20169;-5
2022/06/06 06:00:44;;;;;;;3.50;3.20;;;22.40;68.50;;;;;;5131434;27;20411;-5
2022/06/06 06:03:29;;;;;;;2.90;2.70;;;22.30;68.50;;;;;;5130767;27;20216;-5
2022/06/06 06:05:58;;;;;;;3.10;2.80;;;22.30;68.30;;;;;;5109604;27;20173;-5
2022/06/06 06:08:39;;;;;;;2.87;2.67;;;22.50;66.80;;;;;;5113160;27;20163;-5
2022/06/06 06:11:29;;;;;;;2.80;2.60;;;22.70;65.10;;;;;;5133773;27;20171;-7
2022/06/06 06:17:23;;;;;;;3.03;2.83;;;22.80;64.40;;;;;;5133980;27;20172;-5
2022/06/06 06:20:06;;;;;;;3.10;2.87;;;22.80;64.20;;;;;;5109914;27;20170;-6
2022/06/06 06:25:57;;;;;;;3.20;2.90;;;23.30;60.50;;;;;;5129930;27;20171;-5
2022/06/06 06:32:08;;;;;;;2.80;2.60;;;23.90;58.20;;;;;;5129592;27;20450;-5
2022/06/06 06:35:00;;;;;;;2.57;2.37;;;23.80;58.40;;;;;;5101432;27;20594;-5
2022/06/06 06:38:15;;;;;;;2.60;2.40;;;23.80;58.20;;;;;;5124211;27;20257;-6
2022/06/06 06:44:17;;;;;;;2.50;2.30;;;24.50;56.20;;;;;;5130842;27;20277;-7
2022/06/06 06:46:57;;;;;;;2.90;2.70;;;24.70;55.40;;;;;;5100233;27;20341;-6
2022/06/06 06:49:51;;;;;;;2.73;2.53;;;24.90;54.80;;;;;;5102877;27;20169;-6
2022/06/06 06:52:44;;;;;;;2.67;2.47;;;25.00;54.40;;;;;;5122505;27;20710;-5
2022/06/06 06:55:41;;;;;;;2.63;2.43;;;25.00;54.40;;;;;;5111900;27;20165;-5
2022/06/06 06:58:35;;;;;;;2.63;2.43;;;25.10;53.90;;;;;;5107809;27;20170;-6
2022/06/06 07:01:17;;;;;;;2.47;2.27;;;25.00;54.20;;;;;;5121899;27;20158;-6
2022/06/06 07:10:25;;;;;;;2.42;2.22;;;25.40;53.40;;;;;;5118104;27;20402;-6
2022/06/06 07:13:30;;;;;;;2.50;2.30;;;25.50;53.30;;;;;;5120025;27;20261;-6
2022/06/06 07:16:31;;;;;;;2.50;2.30;;;25.40;53.20;;;;;;5119122;27;20689;-5
2022/06/06 07:19:05;;;;;;;2.30;2.10;;;25.20;53.60;;;;;;5128675;27;20218;-7
2022/06/06 07:21:36;;;;;;;2.33;2.20;;;24.90;54.30;;;;;;5114585;27;20161;-7
2022/06/06 07:24:05;;;;;;;2.40;2.20;;;24.70;54.80;;;;;;5106341;27;20202;-6
2022/06/06 07:26:37;;;;;;;2.30;2.10;;;24.80;54.70;;;;;;5108385;27;20378;-5
2022/06/06 07:29:07;;;;;;;2.33;2.22;;;24.90;54.60;;;;;;5129635;27;20165;-7
2022/06/06 07:32:14;;;;;;;2.50;2.30;;;25.20;54.00;;;;;;5110770;27;20170;-7
2022/06/06 07:34:45;;;;;;;2.38;2.20;;;25.40;53.60;;;;;;5128665;27;20157;-7
2022/06/06 07:37:28;;;;;;;2.63;2.22;;;25.60;53.40;;;;;;5135943;27;20168;-6
2022/06/06 07:40:08;;;;;;;2.65;2.45;;;25.60;53.20;;;;;;5135460;27;20174;-7
2022/06/06 07:42:43;;;;;;;2.38;2.17;;;25.70;53.10;;;;;;5116753;27;20205;-7
2022/06/06 07:45:14;;;;;;;2.42;2.22;;;25.70;53.00;;;;;;5088189;27;20172;-5
2022/06/06 07:47:56;;;;;;;2.20;2.10;;;25.80;53.00;;;;;;5103650;27;20170;-7
2022/06/06 07:50:35;;;;;;;2.45;2.25;;;25.80;52.90;;;;;;5119903;27;20161;-7
2022/06/06 07:53:25;;;;;;;2.40;2.20;;;25.80;52.90;;;;;;5127859;27;20437;-7
2022/06/06 07:56:21;;;;;;;2.30;2.10;;;25.90;52.90;;;;;;5120223;27;20173;-5
2022/06/06 07:59:04;;;;;;;2.33;2.17;;;25.90;52.80;;;;;;5116885;27;20200;-6
2022/06/06 08:01:48;;;;;;;2.10;2.00;;;25.90;52.80;;;;;;5110034;27;20302;-7
2022/06/06 08:04:57;;;;;;;2.10;2.00;;;26.00;52.70;;;;;;5133262;27;20225;-6
2022/06/06 08:07:42;;;;;;;2.13;2.03;;;26.00;52.70;;;;;;5044665;28;20474;-5
2022/06/06 08:10:26;;;;;;;2.10;2.00;;;26.00;53.10;;;;;;5117073;27;20158;-6
2022/06/06 08:13:04;;;;;;;2.45;2.25;;;26.00;52.60;;;;;;5103850;28;20598;-7
2022/06/06 08:16:03;;;;;;;2.15;1.95;;;26.00;52.60;;;;;;5123018;27;20173;-7
2022/06/06 08:18:31;;;;;;;2.10;2.00;;;26.10;52.60;;;;;;5116638;27;20197;-7
2022/06/06 08:24:35;;;;;;;2.00;1.90;;;25.90;52.80;;;;;;5125142;27;20500;-6
2022/06/06 08:27:03;;;;;;;2.15;1.98;;;25.90;52.90;;;;;;5108012;28;20177;-6
2022/06/06 08:29:39;;;;;;;2.10;2.00;;;25.90;53.00;;;;;;5121832;27;20226;-8
2022/06/06 08:32:06;;;;;;;2.13;2.03;;;25.80;53.20;;;;;;5115745;27;20256;-8
2022/06/06 08:34:33;;;;;;;1.95;1.83;;;25.80;53.20;;;;;;5124091;27;20311;-6
2022/06/06 08:37:38;;;;;;;2.40;2.20;;;25.90;53.20;;;;;;5107737;27;20252;-7
2022/06/06 08:40:32;;;;;;;2.00;1.90;;;26.00;53.10;;;;;;5090548;28;20511;-6
2022/06/06 08:43:03;;;;;;;1.90;1.80;;;26.10;53.00;;;;;;5120053;27;20197;-5
2022/06/06 08:45:52;;;;;;;1.90;1.80;;;26.10;52.90;;;;;;5132328;28;20169;-7
2022/06/06 08:48:38;;;;;;;2.10;2.00;;;26.20;52.90;;;;;;5111009;27;20556;-9
2022/06/06 08:51:19;;;;;;;2.00;1.90;;;26.20;52.90;;;;;;5119908;28;20257;-8
2022/06/06 08:54:16;;;;;;;2.30;2.10;;;26.20;52.80;;;;;;5126706;28;20230;-6
2022/06/06 08:57:04;;;;;;;1.98;1.88;;;26.20;53.20;;;;;;5120046;27;20200;-5
2022/06/06 08:59:45;;;;;;;2.00;1.80;;;26.20;52.80;;;;;;5122202;27;20173;-7
2022/06/06 09:02:16;;;;;;;2.10;1.90;;;26.30;52.80;;;;;;5104532;28;20462;-7
2022/06/06 09:05:06;;;;;;;1.85;1.75;;;26.30;52.80;;;;;;5119798;27;20204;-7
2022/06/06 09:08:07;;;;;;;1.90;1.80;;;26.20;52.90;;;;;;5135704;27;20231;-6
2022/06/06 09:10:59;;;;;;;1.92;1.83;;;26.20;53.00;;;;;;5115370;27;20242;-7
2022/06/06 09:13:34;;;;;;;1.80;1.70;;;26.20;53.00;;;;;;5122485;27;20758;-8
2022/06/06 09:16:27;;;;;;;1.90;1.80;;;26.20;53.10;;;;;;5108174;28;20174;-6
2022/06/06 09:19:18;;;;;;;2.10;1.90;;;26.10;53.10;;;;;;5104378;28;20253;-7
2022/06/06 09:21:50;;;;;;;2.00;1.80;;;26.10;53.30;;;;;;5108829;28;20242;-7
2022/06/06 09:24:50;;;;;;;1.95;1.85;;;26.00;53.40;;;;;;5107907;28;20201;-6
2022/06/06 09:27:30;;;;;;;1.80;1.70;;;25.90;53.50;;;;;;5104154;28;20626;-6
2022/06/06 09:30:39;;;;;;;2.00;1.90;;;25.90;53.60;;;;;;5078853;28;20393;-7
2022/06/06 09:33:23;;;;;;;1.90;1.80;;;25.80;53.80;;;;;;5030102;28;20210;-6
2022/06/06 09:36:10;;;;;;;1.90;1.80;;;25.80;53.90;;;;;;5106090;28;20443;-7
2022/06/06 09:39:00;;;;;;;1.90;1.80;;;25.70;54.00;;;;;;5108458;28;20335;-8
2022/06/06 09:41:47;;;;;;;1.80;1.70;;;25.70;54.20;;;;;;5105679;28;20419;-7
2022/06/06 09:44:37;;;;;;;1.80;1.70;;;25.70;54.30;;;;;;5115666;28;20251;-6
2022/06/06 09:50:56;;;;;;;1.70;1.60;;;25.70;54.30;;;;;;5108318;28;20221;-7
2022/06/06 09:59:36;;;;;;;1.63;1.53;;;25.50;54.80;;;;;;5111190;28;20225;-6
2022/06/06 10:02:21;;;;;;;1.63;1.53;;;25.50;55.00;;;;;;5103924;28;20167;-6
2022/06/06 10:04:59;;;;;;;1.80;1.70;;;25.50;55.00;;;;;;5099746;28;20197;-8
2022/06/06 10:08:15;;;;;;;1.80;1.70;;;25.50;55.00;;;;;;5109366;28;20500;-7
2022/06/06 10:11:13;;;;;;;1.80;1.70;;;25.40;55.10;;;;;;5093420;28;20528;-7
2022/06/06 10:13:51;;;;;;;1.57;1.47;;;25.40;55.20;;;;;;5111306;28;20178;-7
2022/06/06 10:16:41;;;;;;;1.77;1.67;;;25.40;55.20;;;;;;5110795;28;20166;-5
2022/06/06 10:19:32;;;;;;;1.70;1.60;;;25.40;55.30;;;;;;5105974;28;20314;-7
2022/06/06 10:22:35;;;;;;;1.67;1.57;;;25.30;55.40;;;;;;5097417;28;20162;-9
2022/06/06 10:25:40;;;;;;;1.60;1.50;;;25.30;55.40;;;;;;5091669;28;20285;-7
2022/06/06 10:28:20;;;;;;;1.50;1.40;;;25.30;55.50;;;;;;5085906;28;20166;-7
2022/06/06 10:31:01;;;;;;;1.70;1.60;;;25.30;55.60;;;;;;5105147;28;20170;-6
2022/06/06 10:34:01;;;;;;;1.50;1.40;;;25.20;55.60;;;;;;5106232;28;20162;-7
2022/06/06 10:36:48;;;;;;;1.60;1.50;;;25.30;55.70;;;;;;5084861;28;20196;-5
2022/06/06 10:39:32;;;;;;;1.63;1.53;;;25.30;55.70;;;;;;5102904;28;20462;-7
2022/06/06 10:42:22;;;;;;;1.80;1.70;;;25.20;55.70;;;;;;5105855;28;20590;-6
2022/06/06 10:45:32;;;;;;;1.50;1.40;;;25.20;55.70;;;;;;5100579;28;20185;-7
2022/06/06 10:48:43;;;;;;;1.73;1.63;;;25.20;55.80;;;;;;5098931;28;20163;-6
2022/06/06 10:51:40;;;;;;;1.50;1.40;;;25.20;55.90;;;;;;5111015;28;20532;-7
2022/06/06 10:54:30;;;;;;;1.70;1.60;;;25.20;55.90;;;;;;5107474;28;20180;-6
2022/06/06 10:57:11;;;;;;;1.80;1.70;;;25.20;55.90;;;;;;5103784;28;20610;-6
2022/06/06 11:00:11;;;;;;;1.53;1.43;;;25.20;56.00;;;;;;5111210;28;20171;-5
2022/06/06 11:02:42;;;;;;;1.70;1.60;;;25.20;56.10;;;;;;5107618;28;20605;-5
2022/06/06 11:05:29;;;;;;;1.67;1.57;;;25.10;56.10;;;;;;5105616;28;20166;-5
2022/06/06 11:08:22;;;;;;;1.50;1.40;;;25.20;56.20;;;;;;5110011;28;20382;-7
2022/06/06 11:10:54;;;;;;;1.70;1.60;;;25.10;56.10;;;;;;5105372;28;20205;-7
2022/06/06 11:13:23;;;;;;;1.50;1.40;;;25.10;56.10;;;;;;5108909;28;20178;-7
2022/06/06 11:16:27;;;;;;;1.50;1.40;;;25.10;56.30;;;;;;5096945;28;20194;-5
2022/06/06 11:19:20;;;;;;;1.57;1.47;;;25.10;56.30;;;;;;5095722;28;20178;-6
2022/06/06 11:22:06;;;;;;;1.60;1.50;;;25.10;56.20;;;;;;5101319;28;20194;-7
2022/06/06 11:25:04;;;;;;;1.37;1.27;;;25.10;56.20;;;;;;5108583;28;20543;-9
2022/06/06 11:27:52;;;;;;;1.60;1.50;;;25.10;56.30;;;;;;5102858;28;20181;-6
2022/06/06 11:30:20;;;;;;;1.50;1.40;;;25.10;56.30;;;;;;5095933;28;20162;-9
2022/06/06 11:33:16;;;;;;;1.50;1.40;;;25.10;56.40;;;;;;5099456;28;20274;-8
2022/06/06 11:35:52;;;;;;;1.67;1.57;;;25.10;56.40;;;;;;5103546;28;20162;-7
2022/06/06 11:38:30;;;;;;;1.50;1.40;;;25.10;56.30;;;;;;5099045;28;20586;-6
2022/06/06 11:41:21;;;;;;;1.40;1.30;;;25.10;56.30;;;;;;5092072;28;20162;-5
2022/06/06 11:43:52;;;;;;;1.50;1.40;;;25.10;56.40;;;;;;5111151;28;20252;-7
2022/06/06 11:46:25;;;;;;;1.80;1.50;;;25.10;56.40;;;;;;5091510;28;20471;-8
2022/06/06 11:49:14;;;;;;;1.30;1.20;;;25.10;56.40;;;;;;5106565;28;20550;-6
2022/06/06 11:51:58;;;;;;;1.50;1.40;;;25.10;56.40;;;;;;5027036;28;20178;-6
2022/06/06 11:55:18;;;;;;;1.50;1.40;;;25.10;56.40;;;;;;5104015;28;20261;-7
2022/06/06 11:58:12;;;;;;;1.53;1.43;;;25.10;56.40;;;;;;5099791;28;20178;-7
2022/06/06 12:00:49;;;;;;;1.33;1.23;;;25.10;56.50;;;;;;5100383;28;20174;-7
2022/06/06 12:03:52;;;;;;;1.40;1.30;;;25.10;56.60;;;;;;5104351;28;20224;-6
2022/06/06 12:06:26;;;;;;;1.27;1.17;;;25.00;56.60;;;;;;5106590;28;20247;-7
2022/06/06 12:09:16;;;;;;;1.23;1.13;;;25.00;56.70;;;;;;5105780;28;20434;-6
2022/06/06 12:12:19;;;;;;;1.40;1.30;;;25.00;56.70;;;;;;5111307;28;20234;-6
2022/06/06 12:15:00;;;;;;;1.40;1.30;;;25.00;56.70;;;;;;5111222;28;20704;-6
2022/06/06 12:17:51;;;;;;;1.43;1.30;;;25.00;56.80;;;;;;5111316;28;20212;-6
2022/06/06 12:20:23;;;;;;;1.23;1.13;;;24.90;56.80;;;;;;5109800;28;20280;-5
2022/06/06 12:23:26;;;;;;;1.33;1.23;;;24.90;56.90;;;;;;5108316;28;20194;-6
2022/06/06 12:26:07;;;;;;;1.30;1.20;;;24.90;57.00;;;;;;5057700;28;20181;-7
2022/06/06 12:28:55;;;;;;;1.30;1.20;;;24.90;57.10;;;;;;5107777;28;20194;-7
2022/06/06 12:32:14;;;;;;;1.30;1.20;;;24.90;57.10;;;;;;5104599;28;20154;-7
2022/06/06 12:35:15;;;;;;;1.30;1.20;;;24.90;57.10;;;;;;5100687;28;20226;-6
2022/06/06 12:37:43;;;;;;;1.40;1.30;;;24.90;57.10;;;;;;5106725;28;20234;-7
2022/06/06 12:40:10;;;;;;;1.43;1.33;;;24.90;57.10;;;;;;5107581;28;20170;-6
2022/06/06 12:42:43;;;;;;;1.30;1.20;;;24.90;57.10;;;;;;5109324;28;20328;-8
2022/06/06 12:45:33;;;;;;;1.40;1.30;;;24.80;57.10;;;;;;5109555;28;20353;-5
2022/06/06 12:48:08;;;;;;;1.30;1.20;;;24.80;57.20;;;;;;5102238;28;20162;-6
2022/06/06 12:50:47;;;;;;;1.37;1.27;;;24.80;57.30;;;;;;5086423;28;20421;-6
2022/06/06 12:53:44;;;;;;;1.20;1.10;;;24.80;57.30;;;;;;5105966;28;20425;-7
2022/06/06 12:56:25;;;;;;;1.13;1.03;;;24.80;57.30;;;;;;5111438;28;20174;-7
2022/06/06 12:59:17;;;;;;;1.27;1.17;;;24.80;57.40;;;;;;5110365;28;20170;-7
2022/06/06 13:01:45;;;;;;;1.37;1.27;;;24.80;57.40;;;;;;5113563;28;20272;-7
2022/06/06 13:04:42;;;;;;;1.50;1.40;;;24.80;57.40;;;;;;5109041;28;20694;-6
2022/06/06 13:07:42;;;;;;;1.47;1.23;;;24.70;57.50;;;;;;5103051;28;20948;-6
2022/06/06 13:10:27;;;;;;;1.40;1.30;;;24.70;57.50;;;;;;5102188;28;20181;-7
2022/06/06 13:13:18;;;;;;;2.03;1.00;;;24.70;57.60;;;;;;5103876;28;20185;-7
2022/06/06 13:16:13;;;;;;;1.63;1.20;;;24.70;57.60;;;;;;5114597;28;20262;-5
2022/06/06 13:18:39;;;;;;;1.40;1.30;;;24.70;57.70;;;;;;5109494;28;20473;-6
2022/06/06 13:21:17;;;;;;;1.27;1.17;;;24.80;57.70;;;;;;5112301;28;20202;-6
2022/06/06 13:24:11;;;;;;;1.27;1.17;;;24.70;57.70;;;;;;5090798;28;20205;-6
2022/06/06 13:26:50;;;;;;;2.10;1.30;;;24.70;57.70;;;;;;5096985;28;20171;-6
2022/06/06 13:29:36;;;;;;;1.60;1.37;;;24.70;57.80;;;;;;5099132;28;20242;-8
2022/06/06 13:32:05;;;;;;;2.00;1.23;;;24.70;57.90;;;;;;5106659;28;20589;-5
2022/06/06 13:35:12;;;;;;;2.37;1.10;;;24.70;58.10;;;;;;5107254;28;20295;-7
2022/06/06 13:38:01;;;;;;;1.30;1.20;;;24.70;58.10;;;;;;4998386;28;20261;-7
2022/06/06 13:40:41;;;;;;;2.50;1.10;;;24.70;58.10;;;;;;5042488;28;20182;-6
2022/06/06 13:43:22;;;;;;;4.80;1.30;;;24.70;58.10;;;;;;5101408;28;20216;-7
2022/06/06 13:46:02;;;;;;;3.00;1.40;;;24.70;57.90;;;;;;5103642;28;20532;-7
2022/06/06 13:48:49;;;;;;;1.70;1.10;;;24.70;57.90;;;;;;5109194;28;20554;-7
2022/06/06 13:51:57;;;;;;;2.43;1.10;;;24.70;57.90;;;;;;5111837;28;20166;-5
2022/06/06 13:58:28;;;;;;;3.17;1.37;;;24.60;58.00;;;;;;4986861;28;20360;-6
2022/06/06 14:01:34;;;;;;;2.10;1.30;;;24.60;57.90;;;;;;5006558;28;20195;-6
2022/06/06 14:04:38;;;;;;;1.33;1.20;;;24.70;57.70;;;;;;5103765;28;20243;-5
2022/06/06 14:07:12;;;;;;;1.20;1.00;;;24.70;57.90;;;;;;5095974;28;20287;-6
2022/06/06 14:09:41;;;;;;;2.37;1.30;;;24.60;57.30;;;;;;5110889;28;20173;-8
2022/06/06 14:12:26;;;;;;;2.40;1.30;;;24.60;57.70;;;;;;5102110;28;20169;-5
2022/06/06 14:15:15;;;;;;;2.70;1.00;;;24.70;57.70;;;;;;5105849;28;20162;-7
2022/06/06 14:17:51;;;;;;;2.93;1.30;;;24.60;57.60;;;;;;5094120;28;20333;-7
2022/06/06 14:20:30;;;;;;;1.93;1.07;;;24.60;57.60;;;;;;5105606;28;20253;-6
2022/06/06 14:23:16;;;;;;;2.30;1.30;;;24.60;57.60;;;;;;5091323;28;20201;-7
2022/06/06 14:25:47;;;;;;;2.10;1.07;;;24.60;57.60;;;;;;5108704;28;20449;-5
2022/06/06 14:28:20;;;;;;;2.23;1.20;;;24.60;57.60;;;;;;5086738;28;20303;-7
2022/06/06 14:30:47;;;;;;;1.33;1.00;;;24.60;57.60;;;;;;5107314;28;20177;-7
2022/06/06 14:33:34;;;;;;;2.50;1.00;;;24.60;57.50;;;;;;5104112;28;20253;-7
2022/06/06 14:36:22;;;;;;;1.97;1.23;;;24.60;57.40;;;;;;5104658;28;20429;-6
2022/06/06 14:39:15;;;;;;;1.20;1.10;;;24.60;57.50;;;;;;5107467;28;20169;-7
2022/06/06 14:41:47;;;;;;;2.70;1.63;;;24.60;57.30;;;;;;5108689;28;20492;-7
2022/06/06 14:44:14;;;;;;;1.10;1.00;;;24.60;57.40;;;;;;5089020;28;20205;-7
2022/06/06 14:46:49;;;;;;;1.10;1.00;;;24.60;57.80;;;;;;5088588;28;20249;-6
2022/06/06 14:49:30;;;;;;;4.13;1.20;;;24.60;57.50;;;;;;5098787;28;20172;-7
2022/06/06 14:51:58;;;;;;;1.60;1.10;;;24.60;57.10;;;;;;5104614;28;20180;-7
2022/06/06 14:54:25;;;;;;;1.23;1.13;;;24.60;57.40;;;;;;5084050;28;20392;-6
2022/06/06 15:00:01;;;;;;;1.73;1.10;;;24.60;57.00;;;;;;5069683;28;20641;-7
2022/06/06 15:02:29;;;;;;;1.47;1.10;;;24.60;57.20;;;;;;5108586;28;20209;-7
2022/06/06 15:05:23;;;;;;;2.70;1.30;;;24.60;57.30;;;;;;5108125;28;20173;-6
2022/06/06 15:08:08;;;;;;;2.17;1.20;;;24.60;57.20;;;;;;5109241;28;20201;-7
2022/06/06 15:11:03;;;;;;;1.30;1.20;;;24.60;57.20;;;;;;5110536;28;20283;-7